sensor_id;sensor_type;location;lat;lon;timestamp;P1;durP1;ratioP1;P2;durP2;ratioP2
49416;SDS011;35290;39.550;8.786;2023-09-19T00:00:38;42.53;;;7.65;;
49416;SDS011;35290;39.550;8.786;2023-09-19T00:03:06;39.45;;;6.72;;
49416;SDS011;35290;39.550;8.786;2023-09-19T00:05:34;33.13;;;6.75;;
49416;SDS011;35290;39.550;8.786;2023-09-19T00:08:01;41.28;;;6.30;;
49416;SDS011;35290;39.550;8.786;2023-09-19T00:10:29;41.90;;;6.82;;
49416;SDS011;35290;39.550;8.786;2023-09-19T00:12:56;35.42;;;6.10;;
49416;SDS011;35290;39.550;8.786;2023-09-19T00:15:30;37.15;;;6.53;;
49416;SDS011;35290;39.550;8.786;2023-09-19T00:18:01;42.27;;;6.70;;
49416;SDS011;35290;39.550;8.786;2023-09-19T00:20:27;34.10;;;5.95;;
49416;SDS011;35290;39.550;8.786;2023-09-19T00:22:54;41.35;;;6.68;;
49416;SDS011;35290;39.550;8.786;2023-09-19T00:25:20;34.90;;;6.18;;
49416;SDS011;35290;39.550;8.786;2023-09-19T00:27:47;32.50;;;6.88;;
49416;SDS011;35290;39.550;8.786;2023-09-19T00:30:14;36.88;;;6.07;;
49416;SDS011;35290;39.550;8.786;2023-09-19T00:35:20;33.05;;;7.07;;
49416;SDS011;35290;39.550;8.786;2023-09-19T00:37:49;34.85;;;6.50;;
49416;SDS011;35290;39.550;8.786;2023-09-19T00:40:14;38.00;;;6.05;;
49416;SDS011;35290;39.550;8.786;2023-09-19T00:42:44;41.95;;;5.95;;
49416;SDS011;35290;39.550;8.786;2023-09-19T00:45:11;35.65;;;6.40;;
49416;SDS011;35290;39.550;8.786;2023-09-19T00:47:42;34.65;;;5.57;;
49416;SDS011;35290;39.550;8.786;2023-09-19T00:50:14;36.05;;;6.53;;
49416;SDS011;35290;39.550;8.786;2023-09-19T00:52:42;31.67;;;6.40;;
49416;SDS011;35290;39.550;8.786;2023-09-19T00:55:09;49.50;;;6.90;;
49416;SDS011;35290;39.550;8.786;2023-09-19T00:57:37;28.55;;;5.25;;
49416;SDS011;35290;39.550;8.786;2023-09-19T01:00:04;32.67;;;6.18;;
49416;SDS011;35290;39.550;8.786;2023-09-19T01:02:32;33.50;;;5.82;;
49416;SDS011;35290;39.550;8.786;2023-09-19T01:04:58;35.10;;;5.55;;
49416;SDS011;35290;39.550;8.786;2023-09-19T01:07:30;40.50;;;6.25;;
49416;SDS011;35290;39.550;8.786;2023-09-19T01:09:57;45.58;;;6.15;;
49416;SDS011;35290;39.550;8.786;2023-09-19T01:12:30;38.90;;;5.57;;
49416;SDS011;35290;39.550;8.786;2023-09-19T01:17:49;35.55;;;5.97;;
49416;SDS011;35290;39.550;8.786;2023-09-19T01:23:23;34.17;;;6.35;;
49416;SDS011;35290;39.550;8.786;2023-09-19T01:29:16;48.20;;;7.93;;
49416;SDS011;35290;39.550;8.786;2023-09-19T01:31:45;36.03;;;7.05;;
49416;SDS011;35290;39.550;8.786;2023-09-19T01:34:11;35.63;;;6.93;;
49416;SDS011;35290;39.550;8.786;2023-09-19T01:36:37;39.65;;;6.25;;
49416;SDS011;35290;39.550;8.786;2023-09-19T01:39:04;44.40;;;6.93;;
49416;SDS011;35290;39.550;8.786;2023-09-19T01:42:18;47.25;;;6.63;;
49416;SDS011;35290;39.550;8.786;2023-09-19T01:47:23;35.72;;;7.40;;
49416;SDS011;35290;39.550;8.786;2023-09-19T01:52:54;34.13;;;6.45;;
49416;SDS011;35290;39.550;8.786;2023-09-19T01:55:22;33.72;;;5.88;;
49416;SDS011;35290;39.550;8.786;2023-09-19T01:58:01;36.22;;;6.13;;
49416;SDS011;35290;39.550;8.786;2023-09-19T02:00:30;39.58;;;6.55;;
49416;SDS011;35290;39.550;8.786;2023-09-19T02:02:58;30.33;;;5.32;;
49416;SDS011;35290;39.550;8.786;2023-09-19T02:05:25;34.30;;;6.22;;
49416;SDS011;35290;39.550;8.786;2023-09-19T02:07:52;32.95;;;6.70;;
49416;SDS011;35290;39.550;8.786;2023-09-19T02:10:19;26.80;;;6.05;;
49416;SDS011;35290;39.550;8.786;2023-09-19T02:12:45;37.17;;;6.72;;
49416;SDS011;35290;39.550;8.786;2023-09-19T02:15:11;35.88;;;6.85;;
49416;SDS011;35290;39.550;8.786;2023-09-19T02:17:37;42.47;;;7.50;;
49416;SDS011;35290;39.550;8.786;2023-09-19T02:20:03;36.80;;;6.45;;
49416;SDS011;35290;39.550;8.786;2023-09-19T02:22:39;39.58;;;6.20;;
49416;SDS011;35290;39.550;8.786;2023-09-19T02:25:07;31.50;;;5.72;;
49416;SDS011;35290;39.550;8.786;2023-09-19T02:27:34;37.33;;;6.32;;
49416;SDS011;35290;39.550;8.786;2023-09-19T02:29:59;34.90;;;6.40;;
49416;SDS011;35290;39.550;8.786;2023-09-19T02:32:29;38.67;;;6.85;;
49416;SDS011;35290;39.550;8.786;2023-09-19T02:34:56;37.15;;;6.40;;
49416;SDS011;35290;39.550;8.786;2023-09-19T02:37:25;36.85;;;6.30;;
49416;SDS011;35290;39.550;8.786;2023-09-19T02:39:51;40.85;;;6.22;;
49416;SDS011;35290;39.550;8.786;2023-09-19T02:42:17;34.78;;;6.15;;
49416;SDS011;35290;39.550;8.786;2023-09-19T02:44:43;34.70;;;5.45;;
49416;SDS011;35290;39.550;8.786;2023-09-19T02:47:12;37.17;;;6.18;;
49416;SDS011;35290;39.550;8.786;2023-09-19T02:49:40;32.38;;;6.38;;
49416;SDS011;35290;39.550;8.786;2023-09-19T02:52:07;39.72;;;7.05;;
49416;SDS011;35290;39.550;8.786;2023-09-19T02:54:33;42.38;;;6.78;;
49416;SDS011;35290;39.550;8.786;2023-09-19T02:56:59;39.55;;;6.00;;
49416;SDS011;35290;39.550;8.786;2023-09-19T02:59:25;32.13;;;6.05;;
49416;SDS011;35290;39.550;8.786;2023-09-19T03:01:50;35.50;;;6.93;;
49416;SDS011;35290;39.550;8.786;2023-09-19T03:04:16;35.22;;;6.28;;
49416;SDS011;35290;39.550;8.786;2023-09-19T03:06:45;33.17;;;6.53;;
49416;SDS011;35290;39.550;8.786;2023-09-19T03:09:11;36.63;;;7.28;;
49416;SDS011;35290;39.550;8.786;2023-09-19T03:11:36;39.05;;;6.00;;
49416;SDS011;35290;39.550;8.786;2023-09-19T03:14:02;30.98;;;6.13;;
49416;SDS011;35290;39.550;8.786;2023-09-19T03:16:29;36.05;;;6.05;;
49416;SDS011;35290;39.550;8.786;2023-09-19T03:18:55;33.58;;;5.63;;
49416;SDS011;35290;39.550;8.786;2023-09-19T03:21:20;37.47;;;6.10;;
49416;SDS011;35290;39.550;8.786;2023-09-19T03:23:46;33.78;;;6.03;;
49416;SDS011;35290;39.550;8.786;2023-09-19T03:26:15;34.97;;;5.57;;
49416;SDS011;35290;39.550;8.786;2023-09-19T03:28:41;33.05;;;5.95;;
49416;SDS011;35290;39.550;8.786;2023-09-19T03:31:07;36.50;;;5.80;;
49416;SDS011;35290;39.550;8.786;2023-09-19T03:33:33;37.85;;;6.05;;
49416;SDS011;35290;39.550;8.786;2023-09-19T03:35:59;40.28;;;6.22;;
49416;SDS011;35290;39.550;8.786;2023-09-19T03:38:26;35.45;;;6.32;;
49416;SDS011;35290;39.550;8.786;2023-09-19T03:40:52;41.72;;;7.28;;
49416;SDS011;35290;39.550;8.786;2023-09-19T03:43:18;33.53;;;5.97;;
49416;SDS011;35290;39.550;8.786;2023-09-19T03:45:44;34.50;;;6.18;;
49416;SDS011;35290;39.550;8.786;2023-09-19T03:48:10;28.17;;;6.03;;
49416;SDS011;35290;39.550;8.786;2023-09-19T03:50:35;36.08;;;7.13;;
49416;SDS011;35290;39.550;8.786;2023-09-19T03:53:01;30.17;;;6.55;;
49416;SDS011;35290;39.550;8.786;2023-09-19T03:55:27;33.85;;;6.70;;
49416;SDS011;35290;39.550;8.786;2023-09-19T03:57:53;44.20;;;7.13;;
49416;SDS011;35290;39.550;8.786;2023-09-19T04:00:18;34.85;;;6.43;;
49416;SDS011;35290;39.550;8.786;2023-09-19T04:02:47;39.38;;;5.90;;
49416;SDS011;35290;39.550;8.786;2023-09-19T04:05:13;33.22;;;6.45;;
49416;SDS011;35290;39.550;8.786;2023-09-19T04:07:38;37.10;;;6.30;;
49416;SDS011;35290;39.550;8.786;2023-09-19T04:10:04;32.20;;;5.93;;
49416;SDS011;35290;39.550;8.786;2023-09-19T04:12:30;34.97;;;6.50;;
49416;SDS011;35290;39.550;8.786;2023-09-19T04:14:55;32.22;;;6.30;;
49416;SDS011;35290;39.550;8.786;2023-09-19T04:17:21;37.58;;;7.25;;
49416;SDS011;35290;39.550;8.786;2023-09-19T04:19:46;44.17;;;7.03;;
49416;SDS011;35290;39.550;8.786;2023-09-19T04:22:12;33.13;;;5.90;;
49416;SDS011;35290;39.550;8.786;2023-09-19T04:24:38;36.08;;;6.53;;
49416;SDS011;35290;39.550;8.786;2023-09-19T04:27:03;32.15;;;5.65;;
49416;SDS011;35290;39.550;8.786;2023-09-19T04:29:30;29.00;;;5.32;;
49416;SDS011;35290;39.550;8.786;2023-09-19T04:31:55;28.92;;;6.10;;
49416;SDS011;35290;39.550;8.786;2023-09-19T04:34:24;34.80;;;5.03;;
49416;SDS011;35290;39.550;8.786;2023-09-19T04:36:50;33.00;;;5.45;;
49416;SDS011;35290;39.550;8.786;2023-09-19T04:39:15;25.17;;;4.72;;
49416;SDS011;35290;39.550;8.786;2023-09-19T04:41:42;29.60;;;4.53;;
49416;SDS011;35290;39.550;8.786;2023-09-19T04:44:10;29.92;;;5.03;;
49416;SDS011;35290;39.550;8.786;2023-09-19T04:46:35;32.15;;;5.60;;
49416;SDS011;35290;39.550;8.786;2023-09-19T04:49:01;29.42;;;4.55;;
49416;SDS011;35290;39.550;8.786;2023-09-19T04:51:27;29.65;;;4.50;;
49416;SDS011;35290;39.550;8.786;2023-09-19T04:53:57;34.00;;;4.65;;
49416;SDS011;35290;39.550;8.786;2023-09-19T04:56:23;20.67;;;4.25;;
49416;SDS011;35290;39.550;8.786;2023-09-19T04:58:49;25.98;;;4.32;;
49416;SDS011;35290;39.550;8.786;2023-09-19T05:01:14;24.65;;;4.25;;
49416;SDS011;35290;39.550;8.786;2023-09-19T05:03:40;30.05;;;3.92;;
49416;SDS011;35290;39.550;8.786;2023-09-19T05:06:06;31.75;;;5.00;;
49416;SDS011;35290;39.550;8.786;2023-09-19T05:08:31;22.63;;;3.97;;
49416;SDS011;35290;39.550;8.786;2023-09-19T05:10:56;20.27;;;3.80;;
49416;SDS011;35290;39.550;8.786;2023-09-19T05:13:22;21.70;;;3.60;;
49416;SDS011;35290;39.550;8.786;2023-09-19T05:15:49;29.10;;;4.28;;
49416;SDS011;35290;39.550;8.786;2023-09-19T05:18:15;25.73;;;5.00;;
49416;SDS011;35290;39.550;8.786;2023-09-19T05:20:40;33.17;;;5.68;;
49416;SDS011;35290;39.550;8.786;2023-09-19T05:23:07;32.35;;;5.63;;
49416;SDS011;35290;39.550;8.786;2023-09-19T05:25:34;31.73;;;6.45;;
49416;SDS011;35290;39.550;8.786;2023-09-19T05:28:06;36.95;;;5.55;;
49416;SDS011;35290;39.550;8.786;2023-09-19T05:30:33;32.30;;;5.60;;
49416;SDS011;35290;39.550;8.786;2023-09-19T05:33:01;30.35;;;6.13;;
49416;SDS011;35290;39.550;8.786;2023-09-19T05:35:27;26.77;;;5.28;;
49416;SDS011;35290;39.550;8.786;2023-09-19T05:37:53;31.75;;;5.75;;
49416;SDS011;35290;39.550;8.786;2023-09-19T05:40:20;23.95;;;4.80;;
49416;SDS011;35290;39.550;8.786;2023-09-19T05:42:46;22.77;;;4.32;;
49416;SDS011;35290;39.550;8.786;2023-09-19T05:45:12;25.80;;;5.63;;
49416;SDS011;35290;39.550;8.786;2023-09-19T05:47:41;34.58;;;5.05;;
49416;SDS011;35290;39.550;8.786;2023-09-19T05:50:08;25.92;;;4.75;;
49416;SDS011;35290;39.550;8.786;2023-09-19T05:52:37;29.80;;;4.60;;
49416;SDS011;35290;39.550;8.786;2023-09-19T05:55:07;33.22;;;7.00;;
49416;SDS011;35290;39.550;8.786;2023-09-19T05:57:36;35.10;;;6.78;;
49416;SDS011;35290;39.550;8.786;2023-09-19T06:00:04;30.63;;;6.65;;
49416;SDS011;35290;39.550;8.786;2023-09-19T06:02:38;30.67;;;5.80;;
49416;SDS011;35290;39.550;8.786;2023-09-19T06:05:05;32.92;;;5.82;;
49416;SDS011;35290;39.550;8.786;2023-09-19T06:07:32;31.17;;;5.32;;
49416;SDS011;35290;39.550;8.786;2023-09-19T06:10:02;31.00;;;5.00;;
49416;SDS011;35290;39.550;8.786;2023-09-19T06:12:30;30.48;;;5.07;;
49416;SDS011;35290;39.550;8.786;2023-09-19T06:14:58;23.80;;;5.03;;
49416;SDS011;35290;39.550;8.786;2023-09-19T06:17:24;31.00;;;4.70;;
49416;SDS011;35290;39.550;8.786;2023-09-19T06:19:49;23.00;;;4.65;;
49416;SDS011;35290;39.550;8.786;2023-09-19T06:22:16;30.77;;;4.75;;
49416;SDS011;35290;39.550;8.786;2023-09-19T06:24:44;30.70;;;5.47;;
49416;SDS011;35290;39.550;8.786;2023-09-19T06:27:12;31.73;;;5.07;;
49416;SDS011;35290;39.550;8.786;2023-09-19T06:29:38;29.23;;;5.22;;
49416;SDS011;35290;39.550;8.786;2023-09-19T06:32:07;28.60;;;4.80;;
49416;SDS011;35290;39.550;8.786;2023-09-19T06:34:33;27.48;;;4.35;;
49416;SDS011;35290;39.550;8.786;2023-09-19T06:36:59;29.40;;;5.10;;
49416;SDS011;35290;39.550;8.786;2023-09-19T06:39:25;34.80;;;5.15;;
49416;SDS011;35290;39.550;8.786;2023-09-19T06:41:51;28.67;;;5.07;;
49416;SDS011;35290;39.550;8.786;2023-09-19T06:44:19;29.17;;;5.20;;
49416;SDS011;35290;39.550;8.786;2023-09-19T06:46:47;30.95;;;4.80;;
49416;SDS011;35290;39.550;8.786;2023-09-19T06:49:15;35.83;;;5.10;;
49416;SDS011;35290;39.550;8.786;2023-09-19T06:51:40;31.08;;;4.72;;
49416;SDS011;35290;39.550;8.786;2023-09-19T06:54:07;31.83;;;4.80;;
49416;SDS011;35290;39.550;8.786;2023-09-19T06:56:32;31.20;;;5.22;;
49416;SDS011;35290;39.550;8.786;2023-09-19T06:58:58;32.95;;;5.00;;
49416;SDS011;35290;39.550;8.786;2023-09-19T07:01:23;27.08;;;4.70;;
49416;SDS011;35290;39.550;8.786;2023-09-19T07:03:50;26.30;;;4.78;;
49416;SDS011;35290;39.550;8.786;2023-09-19T07:06:15;20.08;;;4.20;;
49416;SDS011;35290;39.550;8.786;2023-09-19T07:08:41;32.13;;;5.35;;
49416;SDS011;35290;39.550;8.786;2023-09-19T07:11:07;27.08;;;4.78;;
49416;SDS011;35290;39.550;8.786;2023-09-19T07:13:32;28.77;;;5.07;;
49416;SDS011;35290;39.550;8.786;2023-09-19T07:15:58;21.75;;;4.13;;
49416;SDS011;35290;39.550;8.786;2023-09-19T07:18:24;33.17;;;4.90;;
49416;SDS011;35290;39.550;8.786;2023-09-19T07:20:50;27.27;;;4.43;;
49416;SDS011;35290;39.550;8.786;2023-09-19T07:23:16;24.17;;;4.45;;
49416;SDS011;35290;39.550;8.786;2023-09-19T07:25:46;29.88;;;4.82;;
49416;SDS011;35290;39.550;8.786;2023-09-19T07:28:11;24.77;;;4.15;;
49416;SDS011;35290;39.550;8.786;2023-09-19T07:30:37;25.33;;;4.15;;
49416;SDS011;35290;39.550;8.786;2023-09-19T07:33:04;23.45;;;3.70;;
49416;SDS011;35290;39.550;8.786;2023-09-19T07:35:30;25.80;;;4.50;;
49416;SDS011;35290;39.550;8.786;2023-09-19T07:37:56;22.73;;;3.70;;
49416;SDS011;35290;39.550;8.786;2023-09-19T07:40:23;27.27;;;3.60;;
49416;SDS011;35290;39.550;8.786;2023-09-19T07:42:49;25.63;;;4.45;;
49416;SDS011;35290;39.550;8.786;2023-09-19T07:45:15;25.95;;;4.22;;
49416;SDS011;35290;39.550;8.786;2023-09-19T07:47:45;18.05;;;3.42;;
49416;SDS011;35290;39.550;8.786;2023-09-19T07:50:11;30.77;;;3.90;;
49416;SDS011;35290;39.550;8.786;2023-09-19T07:52:37;18.38;;;3.47;;
49416;SDS011;35290;39.550;8.786;2023-09-19T07:55:04;24.75;;;3.90;;
49416;SDS011;35290;39.550;8.786;2023-09-19T07:57:34;20.65;;;4.35;;
49416;SDS011;35290;39.550;8.786;2023-09-19T08:00:00;20.70;;;3.80;;
49416;SDS011;35290;39.550;8.786;2023-09-19T08:02:25;21.75;;;3.45;;
49416;SDS011;35290;39.550;8.786;2023-09-19T08:04:53;23.17;;;3.80;;
49416;SDS011;35290;39.550;8.786;2023-09-19T08:07:18;16.05;;;3.55;;
49416;SDS011;35290;39.550;8.786;2023-09-19T08:09:44;21.00;;;3.33;;
49416;SDS011;35290;39.550;8.786;2023-09-19T08:12:11;19.80;;;3.72;;
49416;SDS011;35290;39.550;8.786;2023-09-19T08:14:37;18.60;;;3.33;;
49416;SDS011;35290;39.550;8.786;2023-09-19T08:17:03;25.27;;;3.40;;
49416;SDS011;35290;39.550;8.786;2023-09-19T08:19:30;25.75;;;4.72;;
49416;SDS011;35290;39.550;8.786;2023-09-19T08:21:57;24.27;;;3.70;;
49416;SDS011;35290;39.550;8.786;2023-09-19T08:24:27;21.48;;;4.32;;
49416;SDS011;35290;39.550;8.786;2023-09-19T08:26:58;20.63;;;3.70;;
49416;SDS011;35290;39.550;8.786;2023-09-19T08:29:24;25.63;;;3.78;;
49416;SDS011;35290;39.550;8.786;2023-09-19T08:31:54;23.50;;;3.83;;
49416;SDS011;35290;39.550;8.786;2023-09-19T08:34:20;17.98;;;4.43;;
49416;SDS011;35290;39.550;8.786;2023-09-19T08:36:46;26.13;;;4.22;;
49416;SDS011;35290;39.550;8.786;2023-09-19T08:39:13;22.33;;;3.80;;
49416;SDS011;35290;39.550;8.786;2023-09-19T08:41:39;21.35;;;3.55;;
49416;SDS011;35290;39.550;8.786;2023-09-19T08:44:05;19.95;;;3.38;;
49416;SDS011;35290;39.550;8.786;2023-09-19T08:46:30;21.20;;;3.83;;
49416;SDS011;35290;39.550;8.786;2023-09-19T08:49:08;19.58;;;3.33;;
49416;SDS011;35290;39.550;8.786;2023-09-19T08:52:01;22.40;;;3.28;;
49416;SDS011;35290;39.550;8.786;2023-09-19T08:54:32;20.20;;;3.08;;
49416;SDS011;35290;39.550;8.786;2023-09-19T08:57:05;16.95;;;3.30;;
49416;SDS011;35290;39.550;8.786;2023-09-19T08:59:39;18.05;;;3.65;;
49416;SDS011;35290;39.550;8.786;2023-09-19T09:02:12;19.75;;;3.22;;
49416;SDS011;35290;39.550;8.786;2023-09-19T09:04:43;19.85;;;3.47;;
49416;SDS011;35290;39.550;8.786;2023-09-19T09:07:10;17.60;;;3.42;;
49416;SDS011;35290;39.550;8.786;2023-09-19T09:09:38;22.02;;;3.33;;
49416;SDS011;35290;39.550;8.786;2023-09-19T09:12:07;19.10;;;3.30;;
49416;SDS011;35290;39.550;8.786;2023-09-19T09:14:34;16.23;;;3.20;;
49416;SDS011;35290;39.550;8.786;2023-09-19T09:17:00;16.35;;;3.42;;
49416;SDS011;35290;39.550;8.786;2023-09-19T09:19:26;19.80;;;3.05;;
49416;SDS011;35290;39.550;8.786;2023-09-19T09:21:51;23.98;;;3.30;;
49416;SDS011;35290;39.550;8.786;2023-09-19T09:24:26;18.80;;;3.35;;
49416;SDS011;35290;39.550;8.786;2023-09-19T09:32:27;18.67;;;4.05;;
49416;SDS011;35290;39.550;8.786;2023-09-19T09:34:55;18.98;;;2.65;;
49416;SDS011;35290;39.550;8.786;2023-09-19T09:37:21;14.32;;;3.05;;
49416;SDS011;35290;39.550;8.786;2023-09-19T09:39:52;18.00;;;3.08;;
49416;SDS011;35290;39.550;8.786;2023-09-19T09:42:44;15.38;;;2.92;;
49416;SDS011;35290;39.550;8.786;2023-09-19T09:45:12;20.10;;;2.85;;
49416;SDS011;35290;39.550;8.786;2023-09-19T09:47:44;19.70;;;2.75;;
49416;SDS011;35290;39.550;8.786;2023-09-19T09:56:08;12.88;;;2.90;;
49416;SDS011;35290;39.550;8.786;2023-09-19T09:58:35;13.95;;;2.60;;
49416;SDS011;35290;39.550;8.786;2023-09-19T10:01:02;11.70;;;2.67;;
49416;SDS011;35290;39.550;8.786;2023-09-19T10:03:36;18.73;;;3.22;;
49416;SDS011;35290;39.550;8.786;2023-09-19T10:06:09;14.18;;;2.42;;
49416;SDS011;35290;39.550;8.786;2023-09-19T10:08:59;11.73;;;3.08;;
49416;SDS011;35290;39.550;8.786;2023-09-19T10:11:41;14.13;;;2.30;;
49416;SDS011;35290;39.550;8.786;2023-09-19T10:14:11;14.93;;;2.97;;
49416;SDS011;35290;39.550;8.786;2023-09-19T10:16:49;14.55;;;3.20;;
49416;SDS011;35290;39.550;8.786;2023-09-19T10:19:21;20.48;;;2.47;;
49416;SDS011;35290;39.550;8.786;2023-09-19T10:21:50;13.43;;;2.78;;
49416;SDS011;35290;39.550;8.786;2023-09-19T10:24:16;16.05;;;2.92;;
49416;SDS011;35290;39.550;8.786;2023-09-19T10:26:43;16.10;;;2.70;;
49416;SDS011;35290;39.550;8.786;2023-09-19T10:29:10;20.30;;;3.22;;
49416;SDS011;35290;39.550;8.786;2023-09-19T10:31:39;15.02;;;2.60;;
49416;SDS011;35290;39.550;8.786;2023-09-19T10:34:06;14.73;;;3.08;;
49416;SDS011;35290;39.550;8.786;2023-09-19T10:36:35;17.25;;;3.00;;
49416;SDS011;35290;39.550;8.786;2023-09-19T10:39:02;15.15;;;2.83;;
49416;SDS011;35290;39.550;8.786;2023-09-19T10:41:32;15.40;;;3.35;;
49416;SDS011;35290;39.550;8.786;2023-09-19T10:43:59;18.23;;;2.72;;
49416;SDS011;35290;39.550;8.786;2023-09-19T10:46:28;22.15;;;3.53;;
49416;SDS011;35290;39.550;8.786;2023-09-19T10:48:53;18.33;;;2.97;;
49416;SDS011;35290;39.550;8.786;2023-09-19T10:51:29;24.98;;;3.97;;
49416;SDS011;35290;39.550;8.786;2023-09-19T10:56:32;17.80;;;3.42;;
49416;SDS011;35290;39.550;8.786;2023-09-19T10:59:12;20.05;;;3.15;;
49416;SDS011;35290;39.550;8.786;2023-09-19T11:01:44;19.23;;;3.25;;
49416;SDS011;35290;39.550;8.786;2023-09-19T11:07:01;18.90;;;3.45;;
49416;SDS011;35290;39.550;8.786;2023-09-19T11:09:50;17.75;;;2.95;;
49416;SDS011;35290;39.550;8.786;2023-09-19T11:14:58;22.88;;;3.22;;
49416;SDS011;35290;39.550;8.786;2023-09-19T11:30:52;27.30;;;4.03;;
49416;SDS011;35290;39.550;8.786;2023-09-19T11:33:21;25.92;;;4.07;;
49416;SDS011;35290;39.550;8.786;2023-09-19T11:36:06;22.40;;;3.80;;
49416;SDS011;35290;39.550;8.786;2023-09-19T11:47:14;23.13;;;3.53;;
49416;SDS011;35290;39.550;8.786;2023-09-19T11:49:18;20.23;;;3.25;;
49416;SDS011;35290;39.550;8.786;2023-09-19T11:51:51;20.77;;;3.57;;
49416;SDS011;35290;39.550;8.786;2023-09-19T11:54:17;26.67;;;4.38;;
49416;SDS011;35290;39.550;8.786;2023-09-19T11:56:44;24.98;;;3.67;;
49416;SDS011;35290;39.550;8.786;2023-09-19T11:59:10;25.02;;;3.53;;
49416;SDS011;35290;39.550;8.786;2023-09-19T12:01:37;22.52;;;3.92;;
49416;SDS011;35290;39.550;8.786;2023-09-19T12:04:05;23.15;;;3.60;;
49416;SDS011;35290;39.550;8.786;2023-09-19T12:06:33;25.90;;;4.40;;
49416;SDS011;35290;39.550;8.786;2023-09-19T12:08:59;27.52;;;3.97;;
49416;SDS011;35290;39.550;8.786;2023-09-19T12:11:29;29.65;;;3.75;;
49416;SDS011;35290;39.550;8.786;2023-09-19T12:13:58;23.63;;;3.83;;
49416;SDS011;35290;39.550;8.786;2023-09-19T12:16:25;23.65;;;3.22;;
49416;SDS011;35290;39.550;8.786;2023-09-19T12:18:55;24.70;;;3.42;;
49416;SDS011;35290;39.550;8.786;2023-09-19T12:23:59;26.63;;;3.33;;
49416;SDS011;35290;39.550;8.786;2023-09-19T12:26:29;30.25;;;3.80;;
49416;SDS011;35290;39.550;8.786;2023-09-19T12:28:59;17.65;;;3.25;;
49416;SDS011;35290;39.550;8.786;2023-09-19T12:31:26;23.40;;;3.90;;
49416;SDS011;35290;39.550;8.786;2023-09-19T12:33:54;26.35;;;4.15;;
49416;SDS011;35290;39.550;8.786;2023-09-19T12:36:23;32.35;;;3.95;;
49416;SDS011;35290;39.550;8.786;2023-09-19T12:38:56;22.45;;;3.80;;
49416;SDS011;35290;39.550;8.786;2023-09-19T12:41:24;19.08;;;3.45;;
49416;SDS011;35290;39.550;8.786;2023-09-19T12:43:51;22.90;;;3.97;;
49416;SDS011;35290;39.550;8.786;2023-09-19T12:46:22;21.90;;;3.65;;
49416;SDS011;35290;39.550;8.786;2023-09-19T12:51:47;23.20;;;4.00;;
49416;SDS011;35290;39.550;8.786;2023-09-19T12:54:14;21.02;;;3.40;;
49416;SDS011;35290;39.550;8.786;2023-09-19T12:56:44;18.77;;;2.95;;
49416;SDS011;35290;39.550;8.786;2023-09-19T12:59:14;21.83;;;3.95;;
49416;SDS011;35290;39.550;8.786;2023-09-19T13:01:42;23.98;;;3.60;;
49416;SDS011;35290;39.550;8.786;2023-09-19T13:06:47;17.42;;;3.50;;
49416;SDS011;35290;39.550;8.786;2023-09-19T13:09:19;24.85;;;3.20;;
49416;SDS011;35290;39.550;8.786;2023-09-19T13:11:45;20.13;;;3.78;;
49416;SDS011;35290;39.550;8.786;2023-09-19T13:17:08;22.05;;;4.45;;
49416;SDS011;35290;39.550;8.786;2023-09-19T13:25:19;20.08;;;3.65;;
49416;SDS011;35290;39.550;8.786;2023-09-19T13:27:46;17.80;;;3.30;;
49416;SDS011;35290;39.550;8.786;2023-09-19T13:30:19;22.05;;;3.70;;
49416;SDS011;35290;39.550;8.786;2023-09-19T13:32:45;21.95;;;3.63;;
49416;SDS011;35290;39.550;8.786;2023-09-19T13:35:14;22.67;;;2.95;;
49416;SDS011;35290;39.550;8.786;2023-09-19T13:37:40;20.58;;;3.30;;
49416;SDS011;35290;39.550;8.786;2023-09-19T13:40:08;23.70;;;3.30;;
49416;SDS011;35290;39.550;8.786;2023-09-19T13:42:36;23.65;;;3.72;;
49416;SDS011;35290;39.550;8.786;2023-09-19T13:45:02;13.65;;;3.10;;
49416;SDS011;35290;39.550;8.786;2023-09-19T13:47:29;15.18;;;3.78;;
49416;SDS011;35290;39.550;8.786;2023-09-19T13:49:59;13.93;;;2.92;;
49416;SDS011;35290;39.550;8.786;2023-09-19T13:52:25;22.15;;;3.58;;
49416;SDS011;35290;39.550;8.786;2023-09-19T13:54:53;20.75;;;3.33;;
49416;SDS011;35290;39.550;8.786;2023-09-19T13:57:21;16.40;;;2.47;;
49416;SDS011;35290;39.550;8.786;2023-09-19T13:59:47;13.70;;;2.47;;
49416;SDS011;35290;39.550;8.786;2023-09-19T14:02:13;20.48;;;4.15;;
49416;SDS011;35290;39.550;8.786;2023-09-19T14:04:39;14.15;;;3.25;;
49416;SDS011;35290;39.550;8.786;2023-09-19T14:07:05;16.35;;;3.38;;
49416;SDS011;35290;39.550;8.786;2023-09-19T14:09:32;19.05;;;3.17;;
49416;SDS011;35290;39.550;8.786;2023-09-19T14:11:58;15.82;;;3.35;;
49416;SDS011;35290;39.550;8.786;2023-09-19T14:14:24;14.30;;;3.17;;
49416;SDS011;35290;39.550;8.786;2023-09-19T14:16:49;18.58;;;3.95;;
49416;SDS011;35290;39.550;8.786;2023-09-19T14:19:16;21.17;;;3.15;;
49416;SDS011;35290;39.550;8.786;2023-09-19T14:21:41;20.83;;;3.50;;
49416;SDS011;35290;39.550;8.786;2023-09-19T14:24:07;19.73;;;3.25;;
49416;SDS011;35290;39.550;8.786;2023-09-19T14:26:35;15.85;;;2.70;;
49416;SDS011;35290;39.550;8.786;2023-09-19T14:29:00;18.23;;;2.80;;
49416;SDS011;35290;39.550;8.786;2023-09-19T14:31:26;10.55;;;2.67;;
49416;SDS011;35290;39.550;8.786;2023-09-19T14:33:55;13.68;;;3.10;;
49416;SDS011;35290;39.550;8.786;2023-09-19T14:36:27;14.73;;;2.85;;
49416;SDS011;35290;39.550;8.786;2023-09-19T14:38:53;19.13;;;2.80;;
49416;SDS011;35290;39.550;8.786;2023-09-19T14:41:19;14.13;;;3.30;;
49416;SDS011;35290;39.550;8.786;2023-09-19T14:43:45;17.00;;;2.90;;
49416;SDS011;35290;39.550;8.786;2023-09-19T14:46:10;14.52;;;3.55;;
49416;SDS011;35290;39.550;8.786;2023-09-19T14:48:36;13.10;;;2.90;;
49416;SDS011;35290;39.550;8.786;2023-09-19T14:51:05;15.05;;;3.38;;
49416;SDS011;35290;39.550;8.786;2023-09-19T14:56:02;12.98;;;2.88;;
49416;SDS011;35290;39.550;8.786;2023-09-19T14:58:32;13.30;;;3.42;;
49416;SDS011;35290;39.550;8.786;2023-09-19T15:01:05;11.48;;;2.80;;
49416;SDS011;35290;39.550;8.786;2023-09-19T15:03:32;14.35;;;3.00;;
49416;SDS011;35290;39.550;8.786;2023-09-19T15:05:58;9.43;;;3.00;;
49416;SDS011;35290;39.550;8.786;2023-09-19T15:08:25;17.08;;;2.90;;
49416;SDS011;35290;39.550;8.786;2023-09-19T15:10:51;15.60;;;2.67;;
49416;SDS011;35290;39.550;8.786;2023-09-19T15:13:18;9.90;;;3.03;;
49416;SDS011;35290;39.550;8.786;2023-09-19T15:15:43;10.48;;;2.65;;
49416;SDS011;35290;39.550;8.786;2023-09-19T15:18:12;9.48;;;2.65;;
49416;SDS011;35290;39.550;8.786;2023-09-19T15:20:42;14.50;;;2.90;;
49416;SDS011;35290;39.550;8.786;2023-09-19T15:23:10;13.63;;;2.70;;
49416;SDS011;35290;39.550;8.786;2023-09-19T15:25:37;12.57;;;2.63;;
49416;SDS011;35290;39.550;8.786;2023-09-19T15:28:03;12.27;;;2.67;;
49416;SDS011;35290;39.550;8.786;2023-09-19T15:30:36;11.73;;;2.50;;
49416;SDS011;35290;39.550;8.786;2023-09-19T15:33:03;13.80;;;2.63;;
49416;SDS011;35290;39.550;8.786;2023-09-19T15:35:29;14.13;;;3.42;;
49416;SDS011;35290;39.550;8.786;2023-09-19T15:37:54;11.93;;;2.63;;
49416;SDS011;35290;39.550;8.786;2023-09-19T15:40:21;8.45;;;2.78;;
49416;SDS011;35290;39.550;8.786;2023-09-19T15:42:49;11.95;;;2.90;;
49416;SDS011;35290;39.550;8.786;2023-09-19T15:45:14;10.38;;;3.20;;
49416;SDS011;35290;39.550;8.786;2023-09-19T15:47:41;9.85;;;2.80;;
49416;SDS011;35290;39.550;8.786;2023-09-19T15:50:07;9.50;;;2.65;;
49416;SDS011;35290;39.550;8.786;2023-09-19T15:55:05;10.98;;;2.60;;
49416;SDS011;35290;39.550;8.786;2023-09-19T15:57:31;13.23;;;2.83;;
49416;SDS011;35290;39.550;8.786;2023-09-19T15:59:57;9.88;;;3.00;;